McGill, Nevada
Current Conditions -  °F | °C
As of 2:53 PM on Saturday 25 Oct 2014 (Local Time) from KELY Reporting Station
Clear Clear  
Wind Chill: 71°   Ceiling: Unl
Heat Index: 71°   Visibility: 10mi
Dew Point: 26°   Wind: 29mph
Humidity: 19%   Direction: 160°SSE
Pressure: 30.03"   Gusts: 38mph
Location:  39.4°N, 114.78°W
Report Text: KELY 252153Z AUTO 16025G33KT 10SM CLR 22/M03 A3003 RMK AO2 PK WND 16033/2152 SLP084 T02171033
Loading
Personal Weather Stations






























Interactive Weather Map
Tropical Storm Tracking
New forecast layout! Learn more

10-Day Weather Forecast

Advertisements
Track Severe Weather on mobile